CheckWX is a tool to help pilots better visualize weather data.  It is not intended as a substitute for an official pre-flight weather briefing.

12:19:05 UTC

DTTA METAR
Tunis Carthage International Airport
Tunis, Tunisia
Current

49 mins ago

DTTA 181130Z 17011KT 130V200 9999 FEW026 17/04 Q1024 NOSIG
Observed
Feb-18 @ 11:30 UTC
Wind
  • 170° at 11 KTS
Visibility
10,000+ meters
Flight Rules
VFR
Cloud Levels
  • Few at 2,600' AGL
Temperature
17°C / 63°F
Dewpoint
C / 39°F
Humidity
42%
Altimeter
30.24" Hg
Pressure
1023.92 hPa
Previous

1 hour ago

DTTA 181100Z 16007KT 130V190 9999 FEW026 16/04 Q1024 NOSIG
Observed
Feb-18 @ 11:00 UTC
Wind
  • 160° at 7 KTS
Visibility
10,000+ meters
Flight Rules
VFR
Cloud Levels
  • Few at 2,600' AGL
Temperature
16°C / 61°F
Dewpoint
C / 39°F
Humidity
45%
Altimeter
30.24" Hg
Pressure
1023.92 hPa
Previous

2 hours ago

DTTA 181030Z 17006KT 130V200 9999 FEW026 15/04 Q1025 NOSIG
Observed
Feb-18 @ 10:30 UTC
Wind
  • 170° at 6 KTS
Visibility
10,000+ meters
Flight Rules
VFR
Cloud Levels
  • Few at 2,600' AGL
Temperature
15°C / 59°F
Dewpoint
C / 39°F
Humidity
48%
Altimeter
30.27" Hg
Pressure
1024.92 hPa